Terminal Aerodrome Forecast
Issued by NWS Mt. Holly, NJ

Home | Current Version | Previous Version | Text Only | Print | Product List | Glossary On
Versions: 1 2 3 4 5 6 7 8 9 10 11 12 13 14 15 16 17 18 19 20 21 22 23 24 25 26
000
FTUS41 KPHI 300200 AAB
TAFPHL
TAF AMD
KPHL 300206Z 3002/3106 21006KT P6SM OVC040
      TEMPO 3002/3003 -SHSN
     FM300800 24008KT 5SM -SHSN OVC015
     FM301200 29010KT P6SM SCT015 OVC040
     FM301400 31020G34KT P6SM BKN040
     FM310000 31020G34KT P6SM SCT040=

USA.gov is the U.S. government's official web portal to all federal, state and local government web resources and services.